Oliver Springs, Tennessee
Current Conditions -  °F | °C
As of 6:53 AM on Friday 31 Oct 2014 (Local Time) from KOQT Reporting Station
Broken Clouds Broken Clouds  
Wind Chill:   Ceiling: 10000
Heat Index:   Visibility: 10mi
Dew Point:   Wind: 0mph
Humidity: 93%   Direction: NA
Pressure: 30"   Gusts: NA
Location:  36.04°N, 84.34°W
Report Text: KOQT 311053Z AUTO 00000KT 10SM BKN100 04/03 A3000 RMK AO2 SLP161 T00440033
Loading
Personal Weather Stations






























Interactive Weather Map
Tropical Storm Tracking
New forecast layout! Learn more

10-Day Weather Forecast

Advertisements
Track Severe Weather on mobile